createdAt,value
2018-03-26T03:32:34.457Z,38.10
2018-03-26T03:35:08.246Z,32.28
2018-03-26T03:37:42.870Z,35.97
2018-03-26T03:40:16.768Z,33.45
2018-03-26T03:42:50.683Z,36.00
2018-03-26T03:45:24.344Z,36.25
2018-03-26T03:47:58.148Z,33.38
2018-03-26T03:50:32.689Z,34.08
2018-03-26T03:53:07.098Z,36.08
2018-03-26T03:55:40.742Z,36.70
2018-03-26T03:58:34.227Z,32.58
2018-03-26T04:01:07.940Z,32.58
2018-03-26T04:03:41.720Z,39.22
2018-03-26T04:06:16.381Z,33.83
2018-03-26T04:08:51.054Z,36.38
2018-03-26T04:11:24.844Z,37.33
2018-03-26T04:13:58.880Z,37.67
2018-03-26T04:16:32.620Z,38.95
2018-03-26T04:19:06.512Z,35.35
2018-03-26T04:21:40.330Z,38.50
2018-03-26T04:24:14.407Z,35.53
2018-03-26T04:26:49.007Z,40.10
2018-03-26T04:29:23.794Z,38.17
2018-03-26T04:31:58.340Z,36.30
2018-03-26T04:34:33.004Z,43.03
2018-03-26T04:37:06.694Z,35.97
2018-03-26T04:39:40.503Z,41.72
2018-03-26T04:42:15.857Z,36.83
2018-03-26T04:44:50.394Z,37.10
2018-03-26T04:47:24.344Z,39.25
2018-03-26T04:49:58.533Z,33.90
2018-03-26T04:52:33.052Z,36.95
2018-03-26T04:55:06.913Z,39.05
2018-03-26T04:57:40.701Z,43.72
2018-03-26T05:00:15.132Z,40.78
2018-03-26T05:02:48.961Z,36.97
2018-03-26T05:05:22.745Z,36.47
2018-03-26T05:07:57.374Z,36.45
2018-03-26T05:10:31.817Z,33.78
2018-03-26T05:13:06.248Z,36.92
2018-03-26T05:15:41.074Z,31.77
2018-03-26T05:18:14.768Z,36.67
2018-03-26T05:20:49.384Z,30.75
2018-03-26T05:23:23.088Z,32.58
2018-03-26T05:25:56.924Z,47.50
2018-03-26T05:28:31.356Z,33.60
2018-03-26T05:31:05.167Z,38.05
2018-03-26T05:33:39.649Z,36.53
2018-03-26T05:36:13.221Z,42.03
2018-03-26T05:38:47.447Z,41.83
2018-03-26T05:41:21.307Z,34.30
2018-03-26T05:43:55.007Z,65.87
2018-03-26T05:46:29.565Z,35.67
2018-03-26T05:49:04.182Z,38.33
2018-03-26T05:51:38.433Z,31.98
2018-03-26T05:54:12.229Z,38.88
2018-03-26T05:56:46.036Z,47.50
2018-03-26T05:59:19.839Z,34.03
2018-03-26T06:01:53.693Z,40.92
2018-03-26T06:04:27.699Z,41.15
2018-03-26T06:07:02.175Z,41.75
2018-03-26T06:09:35.959Z,32.40
2018-03-26T06:12:10.636Z,36.60
2018-03-26T06:14:45.587Z,42.62
2018-03-26T06:17:20.986Z,40.47
2018-03-26T06:19:54.712Z,39.83
2018-03-26T06:22:28.519Z,36.35
2018-03-26T06:25:02.232Z,38.05
2018-03-26T06:27:35.930Z,36.78
2018-03-26T06:30:09.719Z,41.20
2018-03-26T06:32:43.392Z,41.17
2018-03-26T06:35:17.225Z,36.13
2018-03-26T06:37:56.885Z,35.22
2018-03-26T06:40:30.631Z,38.97
2018-03-26T06:43:04.432Z,38.08
2018-03-26T06:45:38.207Z,42.80
2018-03-26T06:48:12.312Z,40.00
2018-03-26T06:50:47.002Z,41.20
2018-03-26T06:53:20.866Z,35.08
2018-03-26T06:55:54.572Z,35.35
2018-03-26T06:58:29.070Z,33.58
2018-03-26T07:01:03.469Z,38.83
2018-03-26T07:03:38.040Z,39.35
2018-03-26T07:06:12.426Z,38.70
2018-03-26T07:08:46.531Z,37.40
2018-03-26T07:11:20.304Z,35.28
2018-03-26T07:13:54.291Z,44.47
2018-03-26T07:16:27.961Z,34.60
2018-03-26T07:19:01.767Z,41.28
2018-03-26T07:21:35.589Z,37.72
2018-03-26T07:24:09.468Z,37.08
2018-03-26T07:26:43.077Z,39.55
2018-03-26T07:29:17.041Z,38.67
2018-03-26T07:31:50.783Z,56.35
2018-03-26T07:34:24.522Z,46.28
2018-03-26T07:36:59.152Z,39.47
2018-03-26T07:39:33.665Z,47.45
2018-03-26T07:42:07.412Z,46.75
2018-03-26T07:44:42.319Z,43.90
2018-03-26T07:47:16.777Z,42.72
2018-03-26T07:49:52.083Z,49.38
2018-03-26T07:52:25.887Z,48.35
2018-03-26T07:54:59.685Z,40.20
2018-03-26T07:57:33.485Z,45.60
2018-03-26T08:00:07.329Z,51.22
2018-03-26T08:02:41.089Z,44.03
2018-03-26T08:05:14.996Z,49.00
2018-03-26T08:07:49.488Z,48.15
2018-03-26T08:10:23.254Z,50.12
2018-03-26T08:12:57.800Z,49.10
2018-03-26T08:15:31.591Z,52.67
2018-03-26T08:18:05.445Z,49.30
2018-03-26T08:20:39.245Z,48.92
2018-03-26T08:23:12.977Z,61.85
2018-03-26T08:25:47.370Z,55.42
2018-03-26T08:28:21.775Z,51.45
2018-03-26T08:30:55.612Z,52.03
2018-03-26T08:33:29.402Z,41.20
2018-03-26T08:36:03.156Z,54.50
2018-03-26T08:38:36.945Z,50.72
2018-03-26T08:41:10.795Z,53.03
2018-03-26T08:43:44.573Z,57.75
2018-03-26T08:46:18.402Z,56.22
2018-03-26T08:48:52.879Z,50.92
2018-03-26T08:51:27.468Z,43.97
2018-03-26T08:54:02.164Z,52.13
2018-03-26T08:56:36.052Z,43.00
2018-03-26T08:59:09.788Z,46.90
2018-03-26T09:01:44.464Z,44.10
2018-03-26T09:04:18.940Z,45.65
2018-03-26T09:06:53.399Z,45.60
2018-03-26T09:09:27.229Z,52.28
2018-03-26T09:12:01.006Z,44.65
2018-03-26T09:14:36.069Z,43.35
2018-03-26T09:17:09.952Z,39.25
2018-03-26T09:19:43.641Z,45.40
2018-03-26T09:22:17.561Z,42.10
2018-03-26T09:24:51.365Z,49.38
2018-03-26T09:27:25.912Z,44.33
2018-03-26T09:29:59.654Z,42.47
2018-03-26T09:32:34.222Z,41.85
2018-03-26T09:35:08.045Z,37.92
2018-03-26T09:37:42.024Z,42.58
2018-03-26T09:40:15.984Z,45.20
2018-03-26T09:42:49.772Z,41.67
2018-03-26T09:45:23.660Z,44.72
2018-03-26T09:47:57.442Z,47.67
2018-03-26T09:50:32.004Z,43.22
2018-03-26T09:53:05.896Z,38.83
2018-03-26T09:55:39.704Z,43.90
2018-03-26T09:58:13.540Z,40.67
2018-03-26T10:00:49.272Z,41.78
2018-03-26T10:03:22.965Z,42.40
2018-03-26T10:05:57.600Z,40.75
2018-03-26T10:08:32.104Z,48.03
2018-03-26T10:11:05.849Z,38.10
2018-03-26T10:13:40.441Z,43.60
2018-03-26T10:16:14.419Z,41.75
2018-03-26T10:18:48.254Z,42.50
2018-03-26T10:21:22.913Z,41.17
2018-03-26T10:23:57.423Z,39.88
2018-03-26T10:26:31.309Z,42.88
2018-03-26T10:29:05.192Z,43.60
2018-03-26T10:31:39.860Z,38.90
2018-03-26T10:34:13.769Z,49.00
2018-03-26T10:36:47.576Z,42.35
2018-03-26T10:39:21.420Z,43.75
2018-03-26T10:41:56.870Z,40.65
2018-03-26T10:44:30.648Z,45.22
2018-03-26T10:47:04.493Z,40.05
2018-03-26T10:49:38.329Z,42.75
2018-03-26T10:52:12.747Z,47.62
2018-03-26T10:54:46.494Z,45.47
2018-03-26T10:57:21.093Z,56.60
2018-03-26T10:59:55.131Z,43.13
2018-03-26T11:02:29.220Z,44.55
2018-03-26T11:05:03.369Z,45.33
2018-03-26T11:07:37.690Z,41.05
2018-03-26T11:10:11.499Z,42.25
2018-03-26T11:12:45.988Z,41.45
2018-03-26T11:15:19.787Z,48.95
2018-03-26T11:17:53.692Z,45.40
2018-03-26T11:20:27.572Z,45.63
2018-03-26T11:23:02.008Z,48.13
2018-03-26T11:25:35.791Z,43.05
2018-03-26T11:28:09.579Z,45.08
2018-03-26T11:30:43.365Z,45.42
2018-03-26T11:33:17.160Z,41.30
2018-03-26T11:35:50.934Z,52.45
2018-03-26T11:38:25.649Z,46.42
2018-03-26T11:40:59.371Z,42.35
2018-03-26T11:43:33.181Z,44.17
2018-03-26T11:46:07.832Z,45.75
2018-03-26T11:48:44.068Z,51.22
2018-03-26T11:51:18.188Z,42.70
2018-03-26T11:53:51.758Z,46.35
2018-03-26T11:56:25.648Z,45.90
2018-03-26T11:59:00.180Z,44.55
2018-03-26T12:01:33.944Z,49.33
2018-03-26T12:04:07.827Z,42.40
2018-03-26T12:06:41.670Z,42.60
2018-03-26T12:09:16.247Z,47.17
2018-03-26T12:11:50.091Z,41.63
2018-03-26T12:14:23.873Z,50.22
2018-03-26T12:16:57.676Z,43.72
2018-03-26T12:19:31.814Z,46.72
2018-03-26T12:22:05.524Z,42.90
2018-03-26T12:24:52.069Z,44.67
2018-03-26T12:27:25.952Z,44.58
2018-03-26T12:30:12.628Z,41.45
2018-03-26T12:32:47.234Z,46.75
2018-03-26T12:35:33.673Z,40.22
2018-03-26T12:38:08.280Z,39.55
2018-03-26T12:40:50.104Z,37.90
2018-03-26T12:43:24.067Z,44.17
2018-03-26T12:46:09.806Z,36.53
2018-03-26T12:48:43.905Z,44.38
2018-03-26T12:51:29.620Z,41.37
2018-03-26T12:54:03.472Z,37.42
2018-03-26T12:56:37.338Z,38.17
2018-03-26T12:59:11.192Z,44.15
2018-03-26T13:01:57.064Z,39.38
2018-03-26T13:04:31.691Z,38.85
2018-03-26T13:07:05.728Z,42.85
2018-03-26T13:09:39.361Z,41.05
2018-03-26T13:12:13.258Z,41.85
2018-03-26T13:14:46.998Z,43.72
2018-03-26T13:17:21.025Z,41.20
2018-03-26T13:19:54.753Z,41.85
2018-03-26T13:22:28.720Z,41.37
2018-03-26T13:25:03.292Z,39.85
2018-03-26T13:27:37.988Z,41.85
2018-03-26T13:30:11.628Z,37.65
2018-03-26T13:32:46.245Z,42.22
2018-03-26T13:35:20.829Z,40.83
2018-03-26T13:37:55.500Z,40.63
2018-03-26T13:40:29.290Z,43.50
2018-03-26T13:43:03.412Z,47.55
2018-03-26T13:45:37.195Z,45.88
2018-03-26T13:48:11.833Z,45.03
2018-03-26T13:50:45.708Z,46.63
2018-03-26T13:53:19.481Z,46.42
2018-03-26T13:55:53.243Z,43.38
2018-03-26T13:58:27.775Z,49.17
2018-03-26T14:01:01.532Z,48.00
2018-03-26T14:03:35.478Z,42.42
2018-03-26T14:06:09.892Z,54.05
2018-03-26T14:08:55.542Z,42.33
2018-03-26T14:11:41.286Z,47.55
2018-03-26T14:14:26.973Z,44.70
2018-03-26T14:17:12.708Z,43.75
2018-03-26T14:19:46.557Z,46.63
2018-03-26T14:22:20.364Z,47.53
2018-03-26T14:24:54.217Z,45.12
2018-03-26T14:27:28.097Z,41.75
2018-03-26T14:30:01.929Z,48.03
2018-03-26T14:32:36.593Z,44.67
2018-03-26T14:54:43.033Z,40.63
2018-03-26T14:57:17.629Z,49.50
2018-03-26T14:59:51.649Z,44.95
2018-03-26T15:02:25.244Z,43.65
2018-03-26T15:04:58.980Z,49.83
2018-03-26T15:07:32.782Z,43.03
2018-03-26T15:10:08.079Z,44.97
2018-03-26T15:12:41.944Z,46.30
2018-03-26T15:15:15.737Z,42.22
2018-03-26T15:17:49.448Z,45.75
2018-03-26T15:20:23.311Z,44.47
2018-03-26T15:22:57.236Z,42.72
2018-03-26T15:25:31.614Z,47.97
2018-03-26T15:28:05.393Z,42.70
2018-03-26T15:30:39.137Z,38.25
2018-03-26T15:33:12.884Z,47.30
2018-03-26T15:35:46.833Z,42.15
2018-03-26T15:38:20.631Z,39.58
2018-03-26T15:40:54.370Z,41.00
2018-03-26T15:43:29.017Z,44.75
2018-03-26T15:46:02.830Z,37.83
2018-03-26T15:48:36.664Z,46.20
2018-03-26T15:51:10.599Z,39.90
2018-03-26T15:53:44.327Z,41.40
2018-03-26T15:56:18.060Z,40.45
2018-03-26T15:58:51.868Z,40.53
2018-03-26T16:01:26.362Z,38.20
2018-03-26T16:04:00.165Z,37.60
2018-03-26T16:06:34.301Z,40.50
2018-03-26T16:09:08.149Z,43.05
2018-03-26T16:11:42.016Z,42.55
2018-03-26T16:14:15.669Z,39.35
2018-03-26T16:16:49.552Z,41.70
2018-03-26T16:19:23.283Z,41.00
2018-03-26T16:21:57.100Z,40.25
2018-03-26T16:24:31.031Z,39.78
2018-03-26T16:27:04.840Z,39.17
2018-03-26T16:29:38.587Z,42.00
2018-03-26T16:32:12.376Z,38.67
2018-03-26T16:34:46.166Z,38.58
2018-03-26T16:37:19.847Z,38.40
2018-03-26T16:39:54.280Z,42.72
2018-03-26T16:42:28.037Z,40.35
2018-03-26T16:45:02.611Z,37.67
2018-03-26T16:47:37.235Z,42.22
2018-03-26T16:50:11.143Z,38.15
2018-03-26T16:52:45.765Z,38.15
2018-03-26T16:55:19.512Z,41.40
2018-03-26T16:57:53.400Z,39.15
2018-03-26T17:00:27.228Z,41.78
2018-03-26T17:03:01.924Z,40.53
2018-03-26T17:05:35.792Z,38.03
2018-03-26T17:08:10.420Z,36.42
2018-03-26T17:10:44.200Z,43.58
2018-03-26T17:13:18.745Z,39.67
2018-03-26T17:15:52.851Z,39.83
2018-03-26T17:35:17.991Z,37.78
2018-03-26T17:37:53.035Z,40.55
2018-03-26T17:40:27.856Z,38.55
2018-03-26T17:43:02.582Z,41.28
2018-03-26T17:45:37.012Z,43.20
2018-03-26T17:48:10.702Z,42.90
2018-03-26T17:50:44.786Z,51.05
2018-03-26T17:53:18.435Z,46.42
2018-03-26T17:55:54.967Z,43.15
2018-03-26T17:58:28.652Z,50.28
2018-03-26T18:01:02.414Z,46.95
2018-03-26T18:03:36.200Z,42.60
2018-03-26T18:06:10.627Z,43.15
2018-03-26T18:08:44.946Z,44.63
2018-03-26T18:11:19.881Z,45.03
2018-03-26T18:13:53.581Z,46.10
2018-03-26T18:16:27.469Z,43.65
2018-03-26T18:19:02.122Z,46.25
2018-03-26T18:21:35.972Z,41.63
2018-03-26T18:24:10.562Z,41.25
2018-03-26T18:26:44.280Z,53.05
2018-03-26T18:29:18.741Z,44.85
2018-03-26T18:31:53.317Z,47.40
2018-03-26T18:34:27.160Z,43.35
2018-03-26T18:37:01.736Z,47.55
2018-03-26T18:39:35.467Z,50.50
2018-03-26T18:42:10.161Z,46.90
2018-03-26T18:44:44.295Z,50.97
2018-03-26T18:47:18.183Z,51.08
2018-03-26T18:49:51.898Z,48.33
2018-03-26T18:52:25.758Z,43.20
2018-03-26T18:54:59.497Z,46.80
2018-03-26T18:57:33.336Z,43.15
2018-03-26T19:00:08.642Z,46.80
2018-03-26T19:02:42.512Z,49.20
2018-03-26T19:05:16.312Z,50.25
2018-03-26T19:07:50.198Z,50.50
2018-03-26T19:10:24.566Z,49.78
2018-03-26T19:12:58.356Z,51.67
2018-03-26T19:15:32.097Z,50.47
2018-03-26T19:18:05.967Z,45.12
2018-03-26T19:20:40.514Z,47.53
2018-03-26T19:23:15.052Z,42.62
2018-03-26T19:25:48.855Z,51.05
2018-03-26T19:28:22.728Z,49.10
2018-03-26T19:30:56.484Z,46.88
2018-03-26T19:33:30.334Z,49.85
2018-03-26T19:36:04.894Z,54.67
2018-03-26T19:38:39.433Z,55.67
2018-03-26T19:41:13.925Z,56.42
2018-03-26T19:43:48.405Z,51.15
2018-03-26T19:46:22.160Z,49.30
2018-03-26T19:48:56.044Z,50.67
2018-03-26T19:51:30.602Z,50.12
2018-03-26T19:54:05.560Z,55.83
2018-03-26T19:56:39.332Z,48.40
2018-03-26T19:59:13.988Z,51.90
2018-03-26T20:01:47.755Z,52.10
2018-03-26T20:04:22.417Z,50.97
2018-03-26T20:06:56.038Z,45.95
2018-03-26T20:09:29.728Z,50.55
2018-03-26T20:12:04.208Z,49.03
2018-03-26T20:14:37.992Z,51.47
2018-03-26T20:17:12.453Z,54.08
2018-03-26T20:19:46.254Z,49.00
2018-03-26T20:22:20.096Z,52.05
2018-03-26T20:24:54.921Z,48.38
2018-03-26T20:27:28.696Z,59.92
2018-03-26T20:30:02.445Z,56.97
2018-03-26T20:32:36.835Z,56.58
2018-03-26T20:35:11.377Z,55.67
2018-03-26T20:37:45.143Z,59.08
2018-03-26T20:40:18.916Z,52.62
2018-03-26T20:42:52.586Z,53.65
2018-03-26T20:45:26.428Z,54.13
2018-03-26T20:48:00.977Z,52.25
2018-03-26T20:50:34.765Z,54.22
2018-03-26T20:53:09.409Z,55.97
2018-03-26T20:55:43.977Z,53.00
2018-03-26T20:58:17.783Z,49.70
